createdAt,value
2024-05-09T00:01:48.591Z,100.00
2024-05-09T00:04:16.562Z,100.00
2024-05-09T00:06:44.775Z,100.00
2024-05-09T00:09:21.745Z,100.00
2024-05-09T00:11:49.581Z,100.00
2024-05-09T00:15:49.185Z,100.00
2024-05-09T00:18:29.265Z,100.00
2024-05-09T00:20:59.955Z,100.00
2024-05-09T00:23:27.663Z,100.00
2024-05-09T00:25:57.540Z,100.00
2024-05-09T00:28:26.160Z,100.00
2024-05-09T00:30:56.327Z,100.00
2024-05-09T00:33:24.588Z,100.00
2024-05-09T00:35:54.814Z,100.00
2024-05-09T00:38:22.346Z,100.00
2024-05-09T00:40:50.225Z,100.00
2024-05-09T00:43:18.763Z,100.00
2024-05-09T00:45:49.229Z,100.00
2024-05-09T00:48:19.883Z,100.00
2024-05-09T00:50:49.977Z,100.00
2024-05-09T00:53:22.050Z,100.00
2024-05-09T00:55:50.184Z,100.00
2024-05-09T00:58:22.137Z,100.00
2024-05-09T01:00:51.109Z,100.00
2024-05-09T01:03:20.395Z,100.00
2024-05-09T01:05:48.178Z,100.00
2024-05-09T01:08:16.473Z,100.00
2024-05-09T01:10:48.612Z,100.00
2024-05-09T01:13:16.673Z,100.00
2024-05-09T01:15:54.782Z,100.00
2024-05-09T01:18:23.118Z,100.00
2024-05-09T01:20:50.749Z,100.00
2024-05-09T01:23:21.221Z,100.00
2024-05-09T01:25:48.865Z,100.00
2024-05-09T01:28:16.617Z,100.00
2024-05-09T01:30:45.592Z,100.00
2024-05-09T01:33:13.720Z,100.00
2024-05-09T01:35:42.568Z,100.00
2024-05-09T01:38:17.253Z,100.00
2024-05-09T01:40:48.979Z,100.00
2024-05-09T01:43:17.624Z,100.00
2024-05-09T01:45:45.247Z,100.00
2024-05-09T01:48:12.989Z,100.00
2024-05-09T01:50:42.733Z,100.00
2024-05-09T01:53:13.856Z,100.00
2024-05-09T01:55:42.481Z,100.00
2024-05-09T01:58:13.446Z,100.00
2024-05-09T02:00:42.806Z,100.00
2024-05-09T02:03:15.590Z,100.00
2024-05-09T02:05:46.753Z,100.00
2024-05-09T02:08:16.337Z,100.00
2024-05-09T02:10:44.628Z,100.00
2024-05-09T02:13:16.254Z,100.00
2024-05-09T02:15:44.415Z,100.00
2024-05-09T02:18:12.825Z,100.00
2024-05-09T02:20:42.176Z,100.00
2024-05-09T02:23:10.666Z,100.00
2024-05-09T02:25:38.357Z,100.00
2024-05-09T02:28:06.436Z,100.00
2024-05-09T02:30:40.595Z,100.00
2024-05-09T02:33:12.379Z,100.00
2024-05-09T02:35:43.307Z,100.00
2024-05-09T02:38:13.093Z,100.00
2024-05-09T02:40:41.297Z,100.00
2024-05-09T02:43:10.780Z,100.00
2024-05-09T02:45:41.976Z,100.00
2024-05-09T02:48:11.542Z,100.00
2024-05-09T02:50:45.064Z,100.00
2024-05-09T02:53:13.150Z,100.00
2024-05-09T02:55:41.814Z,100.00
2024-05-09T02:58:10.349Z,100.00
2024-05-09T03:00:41.192Z,100.00
2024-05-09T03:03:14.960Z,100.00
2024-05-09T03:05:43.880Z,100.00
2024-05-09T03:08:12.026Z,100.00
2024-05-09T03:10:40.029Z,100.00
2024-05-09T03:13:07.907Z,100.00
2024-05-09T03:15:35.558Z,100.00
2024-05-09T03:18:03.490Z,100.00
2024-05-09T03:20:35.903Z,100.00
2024-05-09T03:23:05.465Z,100.00
2024-05-09T03:25:34.491Z,100.00
2024-05-09T03:28:02.390Z,100.00
2024-05-09T03:30:38.884Z,100.00
2024-05-09T03:33:10.693Z,100.00
2024-05-09T03:35:41.195Z,100.00
2024-05-09T03:38:08.986Z,100.00
2024-05-09T03:40:37.465Z,100.00
2024-05-09T03:43:05.097Z,100.00
2024-05-09T03:45:32.708Z,100.00
2024-05-09T03:48:00.354Z,100.00
2024-05-09T03:50:33.832Z,100.00
2024-05-09T03:53:09.837Z,100.00
2024-05-09T03:55:37.536Z,100.00
2024-05-09T03:58:08.128Z,100.00
2024-05-09T04:00:39.202Z,100.00
2024-05-09T04:03:10.989Z,100.00
2024-05-09T04:05:41.395Z,100.00
2024-05-09T04:08:12.946Z,100.00
2024-05-09T04:10:40.924Z,100.00
2024-05-09T04:13:09.475Z,100.00
2024-05-09T04:15:37.045Z,100.00
2024-05-09T04:18:05.089Z,100.00
2024-05-09T04:20:38.341Z,100.00
2024-05-09T04:23:14.898Z,100.00
2024-05-09T04:25:44.745Z,100.00
2024-05-09T04:28:13.133Z,100.00
2024-05-09T04:30:41.733Z,100.00
2024-05-09T04:33:12.284Z,100.00
2024-05-09T04:35:47.348Z,100.00
2024-05-09T04:38:18.277Z,100.00
2024-05-09T04:40:46.074Z,100.00
2024-05-09T04:43:19.139Z,100.00
2024-05-09T04:45:46.997Z,100.00
2024-05-09T04:48:14.875Z,100.00
2024-05-09T04:50:42.669Z,100.00
2024-05-09T04:53:11.470Z,100.00
2024-05-09T04:55:42.264Z,100.00
2024-05-09T04:58:10.602Z,100.00
2024-05-09T05:00:40.189Z,100.00
2024-05-09T05:03:11.042Z,100.00
2024-05-09T05:05:41.863Z,100.00
2024-05-09T05:08:11.656Z,100.00
2024-05-09T05:10:42.309Z,100.00
2024-05-09T05:13:18.699Z,100.00
2024-05-09T05:15:46.874Z,100.00
2024-05-09T05:18:15.162Z,100.00
2024-05-09T05:20:43.167Z,100.00
2024-05-09T05:23:12.462Z,100.00
2024-05-09T05:25:43.487Z,100.00
2024-05-09T05:28:11.211Z,100.00
2024-05-09T05:30:39.298Z,100.00
2024-05-09T05:33:09.983Z,100.00
2024-05-09T05:35:37.448Z,100.00
2024-05-09T05:38:07.956Z,100.00
2024-05-09T05:40:38.431Z,100.00
2024-05-09T05:43:15.949Z,100.00
2024-05-09T05:45:44.635Z,100.00
2024-05-09T05:48:16.697Z,100.00
2024-05-09T05:50:46.500Z,100.00
2024-05-09T05:53:14.458Z,100.00
2024-05-09T05:55:42.517Z,100.00
2024-05-09T05:58:14.480Z,100.00
2024-05-09T06:00:42.852Z,100.00
2024-05-09T06:03:14.345Z,100.00
2024-05-09T06:05:46.942Z,100.00
2024-05-09T06:08:15.080Z,100.00
2024-05-09T06:10:42.940Z,100.00
2024-05-09T06:13:14.331Z,100.00
2024-05-09T06:15:43.609Z,100.00
2024-05-09T06:18:12.762Z,100.00
2024-05-09T06:20:42.789Z,100.00
2024-05-09T06:23:11.940Z,100.00
2024-05-09T06:25:39.641Z,100.00
2024-05-09T06:28:07.259Z,100.00
2024-05-09T06:30:42.255Z,100.00
2024-05-09T06:33:14.347Z,100.00
2024-05-09T06:35:43.880Z,100.00
2024-05-09T06:38:11.941Z,100.00
2024-05-09T06:40:41.975Z,100.00
2024-05-09T06:43:11.777Z,100.00
2024-05-09T06:45:41.853Z,100.00
2024-05-09T06:48:10.366Z,100.00
2024-05-09T06:50:39.597Z,100.00
2024-05-09T06:53:07.780Z,100.00
2024-05-09T06:55:36.065Z,100.00
2024-05-09T06:58:05.407Z,100.00
2024-05-09T07:00:38.838Z,100.00
2024-05-09T07:03:14.853Z,100.00
2024-05-09T07:05:44.967Z,100.00
2024-05-09T07:08:14.093Z,100.00
2024-05-09T07:10:41.898Z,100.00
2024-05-09T07:13:10.024Z,100.00
2024-05-09T07:15:38.030Z,100.00
2024-05-09T07:18:18.341Z,100.00
2024-05-09T07:20:47.648Z,100.00
2024-05-09T07:23:16.080Z,100.00
2024-05-09T07:25:44.095Z,100.00
2024-05-09T07:28:13.689Z,98.38
2024-05-09T07:30:41.545Z,97.50
2024-05-09T07:33:16.213Z,96.22
2024-05-09T07:35:43.922Z,93.01
2024-05-09T07:38:11.467Z,89.73
2024-05-09T07:40:40.733Z,91.88
2024-05-09T07:43:14.609Z,89.46
2024-05-09T07:45:51.144Z,89.67
2024-05-09T07:52:39.104Z,83.04
2024-05-09T07:53:47.668Z,81.90
2024-05-09T07:56:21.705Z,85.71
2024-05-09T07:58:51.902Z,80.96
2024-05-09T08:01:20.714Z,78.31
2024-05-09T08:03:53.248Z,79.06
2024-05-09T08:06:20.962Z,79.22
2024-05-09T08:08:48.431Z,80.14
2024-05-09T08:11:16.116Z,78.11
2024-05-09T08:13:43.697Z,78.81
2024-05-09T08:16:11.754Z,76.67
2024-05-09T08:18:39.735Z,78.56
2024-05-09T08:21:09.997Z,80.66
2024-05-09T08:23:37.490Z,81.25
2024-05-09T08:26:05.593Z,82.85
2024-05-09T08:28:33.134Z,82.88
2024-05-09T08:31:03.137Z,83.03
2024-05-09T08:33:32.784Z,82.96
2024-05-09T08:36:00.380Z,82.73
2024-05-09T08:38:31.586Z,74.99
2024-05-09T08:41:00.027Z,73.72
2024-05-09T08:43:28.677Z,73.01
2024-05-09T08:45:56.566Z,75.09
2024-05-09T08:48:24.737Z,75.21
2024-05-09T08:50:53.420Z,76.28
2024-05-09T08:53:21.281Z,77.26
2024-05-09T08:55:51.863Z,77.92
2024-05-09T08:58:21.672Z,74.49
2024-05-09T09:00:49.713Z,75.60
2024-05-09T09:03:19.536Z,72.90
2024-05-09T09:05:55.440Z,75.45
2024-05-09T09:08:23.055Z,72.52
2024-05-09T09:10:57.735Z,72.20
2024-05-09T09:13:26.222Z,73.45
2024-05-09T09:15:59.171Z,73.58
2024-05-09T09:18:27.946Z,72.91
2024-05-09T09:20:55.899Z,72.47
2024-05-09T09:23:23.356Z,72.16
2024-05-09T09:25:53.437Z,71.54
2024-05-09T09:28:23.294Z,73.63
2024-05-09T09:30:51.527Z,69.87
2024-05-09T09:33:19.713Z,70.93
2024-05-09T09:35:47.331Z,73.05
2024-05-09T09:38:21.098Z,76.34
2024-05-09T09:40:50.153Z,65.77
2024-05-09T09:43:22.577Z,66.99
2024-05-09T09:45:53.113Z,66.01
2024-05-09T09:48:22.549Z,67.65
2024-05-09T09:50:52.200Z,62.38
2024-05-09T09:53:20.068Z,64.44
2024-05-09T09:55:48.395Z,63.72
2024-05-09T09:58:17.652Z,69.50
2024-05-09T10:00:48.133Z,67.94
2024-05-09T10:03:15.543Z,68.02
2024-05-09T10:05:46.323Z,65.88
2024-05-09T10:08:16.662Z,62.60
2024-05-09T10:10:53.093Z,64.29
2024-05-09T10:13:34.040Z,59.02
2024-05-09T10:16:11.396Z,62.29
2024-05-09T10:18:39.851Z,61.48
2024-05-09T10:21:17.564Z,64.21
2024-05-09T10:23:57.346Z,60.29
2024-05-09T10:26:31.998Z,59.98
2024-05-09T10:28:59.894Z,57.62
2024-05-09T10:31:31.322Z,56.64
2024-05-09T10:34:00.679Z,59.78
2024-05-09T10:36:31.583Z,56.73
2024-05-09T10:38:59.642Z,55.90
2024-05-09T10:41:26.945Z,58.09
2024-05-09T10:43:54.325Z,65.21
2024-05-09T10:46:22.430Z,63.43
2024-05-09T10:48:53.500Z,59.72
2024-05-09T10:51:21.609Z,58.77
2024-05-09T10:53:49.159Z,60.46
2024-05-09T10:56:17.389Z,59.88
2024-05-09T10:58:45.176Z,60.18
2024-05-09T11:01:13.728Z,63.56
2024-05-09T11:03:42.196Z,61.32
2024-05-09T11:06:15.413Z,63.18
2024-05-09T11:08:43.979Z,63.36
2024-05-09T11:11:11.806Z,59.19
2024-05-09T11:13:40.598Z,59.73
2024-05-09T11:16:20.013Z,60.38
2024-05-09T11:18:55.748Z,59.66
2024-05-09T11:21:26.954Z,60.07
2024-05-09T11:23:55.239Z,60.16
2024-05-09T11:26:25.313Z,61.95
2024-05-09T11:28:52.985Z,62.80
2024-05-09T11:31:20.656Z,65.17
2024-05-09T11:33:49.963Z,62.41
2024-05-09T11:36:17.551Z,64.64
2024-05-09T11:38:47.830Z,62.81
2024-05-09T11:41:18.703Z,63.81
2024-05-09T11:43:48.247Z,62.96
2024-05-09T11:46:15.947Z,60.90
2024-05-09T11:48:43.717Z,60.49
2024-05-09T11:51:11.225Z,62.09
2024-05-09T11:53:38.832Z,64.06
2024-05-09T11:56:10.189Z,62.68
2024-05-09T11:58:39.649Z,63.49
2024-05-09T12:01:07.523Z,64.30
2024-05-09T12:03:35.546Z,65.45
2024-05-09T12:06:03.890Z,63.66
2024-05-09T12:08:31.543Z,62.19
2024-05-09T12:10:59.359Z,62.19
2024-05-09T12:13:29.874Z,66.78
2024-05-09T12:15:58.856Z,64.58
2024-05-09T12:18:26.584Z,63.76
2024-05-09T12:20:54.087Z,63.66
2024-05-09T12:23:21.853Z,62.21
2024-05-09T12:25:50.031Z,62.70
2024-05-09T12:28:18.052Z,59.07
2024-05-09T12:30:51.063Z,60.34
2024-05-09T12:33:20.814Z,61.95
2024-05-09T12:35:50.853Z,61.51
2024-05-09T12:38:18.976Z,62.89
2024-05-09T12:40:46.663Z,65.54
2024-05-09T12:43:14.259Z,66.64
2024-05-09T12:45:41.854Z,69.17
2024-05-09T12:48:13.142Z,64.22
2024-05-09T12:50:41.950Z,66.35
2024-05-09T12:53:09.960Z,64.78
2024-05-09T12:55:45.004Z,66.17
2024-05-09T12:58:24.205Z,68.81
2024-05-09T13:00:52.723Z,67.44
2024-05-09T13:03:23.849Z,66.06
2024-05-09T13:05:52.177Z,67.71
2024-05-09T13:08:20.948Z,69.95
2024-05-09T13:10:49.056Z,69.01
2024-05-09T13:13:17.168Z,68.17
2024-05-09T13:15:45.205Z,66.22
2024-05-09T13:18:13.869Z,66.66
2024-05-09T13:20:44.650Z,65.86
2024-05-09T13:23:12.328Z,66.48
2024-05-09T13:25:40.945Z,64.69
2024-05-09T13:28:08.922Z,66.46
2024-05-09T13:30:40.787Z,66.56
2024-05-09T13:33:11.783Z,66.27
2024-05-09T13:35:48.614Z,66.66
2024-05-09T13:38:19.590Z,64.83
2024-05-09T13:40:48.121Z,66.56
2024-05-09T13:43:16.350Z,63.65
2024-05-09T13:45:44.277Z,66.49
2024-05-09T13:48:12.088Z,67.87
2024-05-09T13:50:40.000Z,65.51
2024-05-09T13:53:10.302Z,64.13
2024-05-09T13:55:41.721Z,63.49
2024-05-09T13:58:09.808Z,59.13
2024-05-09T14:00:45.214Z,59.65
2024-05-09T14:03:18.710Z,58.98
2024-05-09T14:05:49.767Z,58.46
2024-05-09T14:08:22.558Z,60.66
2024-05-09T14:10:51.008Z,58.44
2024-05-09T14:13:18.874Z,56.53
2024-05-09T14:15:46.965Z,59.93
2024-05-09T14:18:15.105Z,59.80
2024-05-09T14:20:43.112Z,60.28
2024-05-09T14:23:11.366Z,62.61
2024-05-09T14:25:43.439Z,62.92
2024-05-09T14:28:13.175Z,62.22
2024-05-09T14:30:42.062Z,64.67
2024-05-09T14:33:10.594Z,65.17
2024-05-09T14:35:38.977Z,63.75
2024-05-09T14:38:07.824Z,63.38
2024-05-09T14:40:42.048Z,62.31
2024-05-09T14:43:15.897Z,62.12
2024-05-09T14:45:44.265Z,61.84
2024-05-09T14:48:14.196Z,61.57
2024-05-09T14:50:42.479Z,61.29
2024-05-09T14:53:11.204Z,62.49
2024-05-09T14:55:40.902Z,61.80
2024-05-09T14:58:10.560Z,60.39
2024-05-09T15:00:48.215Z,59.90
2024-05-09T15:03:18.946Z,59.13
2024-05-09T15:05:47.405Z,60.55
2024-05-09T15:08:17.582Z,60.06
2024-05-09T15:10:45.666Z,58.69
2024-05-09T15:13:16.239Z,57.25
2024-05-09T15:15:48.401Z,58.83
2024-05-09T15:18:16.926Z,58.24
2024-05-09T15:20:45.260Z,59.05
2024-05-09T15:23:13.718Z,58.88
2024-05-09T15:25:41.265Z,58.73
2024-05-09T15:28:09.016Z,60.13
2024-05-09T15:30:37.252Z,60.26
2024-05-09T15:33:13.092Z,59.81
2024-05-09T15:35:49.254Z,59.57
2024-05-09T15:38:18.630Z,59.32
2024-05-09T15:40:46.434Z,59.97
2024-05-09T15:43:14.262Z,60.72
2024-05-09T15:45:42.040Z,60.00
2024-05-09T15:48:12.570Z,59.52
2024-05-09T15:50:42.283Z,61.05
2024-05-09T15:53:13.224Z,59.92
2024-05-09T15:55:41.899Z,58.43
2024-05-09T15:58:10.090Z,58.29
2024-05-09T16:00:41.543Z,57.97
2024-05-09T16:03:14.962Z,58.38
2024-05-09T16:05:45.382Z,59.30
2024-05-09T16:08:14.585Z,57.81
2024-05-09T16:10:44.382Z,58.44
2024-05-09T16:13:13.728Z,58.88
2024-05-09T16:15:41.684Z,58.81
2024-05-09T16:18:09.514Z,60.60
2024-05-09T16:20:42.147Z,62.35
2024-05-09T16:23:11.295Z,62.25
2024-05-09T16:25:39.359Z,60.07
2024-05-09T16:28:10.295Z,60.86
2024-05-09T16:30:38.969Z,60.46
2024-05-09T16:33:07.274Z,60.20
2024-05-09T16:35:35.494Z,61.13
2024-05-09T16:38:06.347Z,60.85
2024-05-09T16:40:38.750Z,60.78
2024-05-09T16:43:08.833Z,60.94
2024-05-09T16:45:37.018Z,61.22
2024-05-09T16:48:05.805Z,61.75
2024-05-09T16:50:35.318Z,62.49
2024-05-09T16:53:07.041Z,63.55
2024-05-09T16:55:35.334Z,65.56
2024-05-09T16:58:04.021Z,65.44
2024-05-09T17:00:39.970Z,66.18
2024-05-09T17:03:13.498Z,67.14
2024-05-09T17:05:42.949Z,67.81
2024-05-09T17:08:15.776Z,67.35
2024-05-09T17:10:44.823Z,68.54
2024-05-09T17:13:12.396Z,69.38
2024-05-09T17:15:40.237Z,69.64
2024-05-09T17:18:08.352Z,70.80
2024-05-09T17:20:37.356Z,71.45
2024-05-09T17:23:14.981Z,72.25
2024-05-09T17:25:45.627Z,69.38
2024-05-09T17:28:13.936Z,69.82
2024-05-09T17:30:42.747Z,70.16
2024-05-09T17:33:12.712Z,70.33
2024-05-09T17:35:40.848Z,71.43
2024-05-09T17:38:08.876Z,72.50
2024-05-09T17:40:38.366Z,72.82
2024-05-09T17:43:10.764Z,73.26
2024-05-09T17:45:40.493Z,73.67
2024-05-09T17:48:11.033Z,73.74
2024-05-09T17:50:40.085Z,74.18
2024-05-09T17:53:08.897Z,74.18
2024-05-09T17:55:36.816Z,73.58
2024-05-09T17:58:05.637Z,72.95
2024-05-09T18:00:40.125Z,72.74
2024-05-09T18:03:14.429Z,72.82
2024-05-09T18:05:44.034Z,74.16
2024-05-09T18:08:13.112Z,74.24
2024-05-09T18:10:41.480Z,74.22
2024-05-09T18:13:10.197Z,72.80
2024-05-09T18:15:41.729Z,73.35
2024-05-09T18:18:10.905Z,72.41
2024-05-09T18:20:43.894Z,71.22
2024-05-09T18:23:16.048Z,71.42
2024-05-09T18:25:46.739Z,71.96
2024-05-09T18:28:15.568Z,73.69
2024-05-09T18:30:46.421Z,75.43
2024-05-09T18:33:18.747Z,75.27
2024-05-09T18:35:46.582Z,75.44
2024-05-09T18:38:14.213Z,76.58
2024-05-09T18:40:45.035Z,76.63
2024-05-09T18:43:14.968Z,76.32
2024-05-09T18:45:42.736Z,75.17
2024-05-09T18:48:13.968Z,75.82
2024-05-09T18:50:42.035Z,73.17
2024-05-09T18:53:11.915Z,73.51
2024-05-09T18:55:40.726Z,72.84
2024-05-09T18:58:08.339Z,73.68
2024-05-09T19:00:40.060Z,66.82
2024-05-09T19:03:14.438Z,67.13
2024-05-09T19:30:21.013Z,60.24
2024-05-09T19:32:54.048Z,61.97
2024-05-09T19:35:36.335Z,63.35
2024-05-09T19:38:05.231Z,64.63
2024-05-09T19:40:34.506Z,62.89
2024-05-09T19:43:05.296Z,64.06
2024-05-09T19:45:39.405Z,63.39
2024-05-09T19:48:09.120Z,63.83
2024-05-09T19:50:42.659Z,63.81
2024-05-09T19:53:13.661Z,65.77
2024-05-09T19:55:42.887Z,65.34
2024-05-09T19:58:15.047Z,66.51
2024-05-09T20:00:49.847Z,66.22
2024-05-09T20:03:21.920Z,66.19
2024-05-09T20:05:50.369Z,66.75
2024-05-09T20:08:21.255Z,66.94
2024-05-09T20:10:56.493Z,63.29
2024-05-09T20:13:53.322Z,63.59
2024-05-09T20:16:35.638Z,65.60
2024-05-09T20:19:16.621Z,67.43
2024-05-09T20:21:55.851Z,68.51
2024-05-09T20:24:29.149Z,66.81
2024-05-09T20:27:12.851Z,66.50
2024-05-09T20:29:47.383Z,65.80
2024-05-09T20:32:21.666Z,67.23
2024-05-09T20:34:53.868Z,67.17
2024-05-09T20:37:27.805Z,67.00
2024-05-09T20:40:09.925Z,68.04
2024-05-09T20:42:49.090Z,66.73
2024-05-09T20:45:21.663Z,67.72
2024-05-09T20:47:52.542Z,68.38
2024-05-09T20:50:29.035Z,67.89
2024-05-09T20:53:07.476Z,68.85
2024-05-09T20:55:47.924Z,70.90
2024-05-09T20:58:16.766Z,70.52
2024-05-09T21:00:59.808Z,70.74
2024-05-09T21:03:39.619Z,72.62
2024-05-09T21:06:08.571Z,71.76
2024-05-09T21:08:44.958Z,71.30
2024-05-09T21:11:17.525Z,71.81
2024-05-09T21:13:49.028Z,72.71
2024-05-09T21:16:21.589Z,71.79
2024-05-09T21:18:56.176Z,72.64
2024-05-09T21:21:24.019Z,73.41
2024-05-09T21:23:52.000Z,72.98
2024-05-09T21:26:23.777Z,73.61
2024-05-09T21:28:51.932Z,70.59
2024-05-09T21:31:19.599Z,72.10
2024-05-09T21:33:47.892Z,73.58
2024-05-09T21:36:18.572Z,74.35
2024-05-09T21:38:47.151Z,73.80
2024-05-09T21:41:15.055Z,73.84
2024-05-09T21:43:42.702Z,74.14
2024-05-09T21:46:13.890Z,74.90
2024-05-09T21:48:41.963Z,76.25
2024-05-09T21:51:14.009Z,75.56
2024-05-09T21:53:44.840Z,77.05
2024-05-09T21:56:12.672Z,74.74
2024-05-09T21:58:43.377Z,76.48
2024-05-09T22:01:11.502Z,75.99
2024-05-09T22:03:39.495Z,74.63
2024-05-09T22:06:11.564Z,72.90
2024-05-09T22:08:44.763Z,74.89
2024-05-09T22:11:22.476Z,75.85
2024-05-09T22:13:50.832Z,75.65
2024-05-09T22:16:25.124Z,75.60
2024-05-09T22:19:03.080Z,75.70
2024-05-09T22:21:35.835Z,74.99
2024-05-09T22:24:11.600Z,75.69
2024-05-09T22:26:45.875Z,77.20
2024-05-09T22:29:25.345Z,75.75
2024-05-09T22:31:58.208Z,76.67
2024-05-09T22:34:36.049Z,75.58
2024-05-09T22:37:37.551Z,75.75
2024-05-09T22:40:23.868Z,77.37
2024-05-09T22:43:02.752Z,78.35
2024-05-09T22:45:30.834Z,77.72
2024-05-09T22:48:09.105Z,78.35
2024-05-09T22:50:55.492Z,76.22
2024-05-09T22:53:30.974Z,76.62
2024-05-09T22:56:01.914Z,76.94
2024-05-09T22:58:35.126Z,74.10
2024-05-09T23:01:17.318Z,76.60
2024-05-09T23:03:49.573Z,76.31
2024-05-09T23:06:25.167Z,77.33
2024-05-09T23:08:58.645Z,77.21
2024-05-09T23:11:30.885Z,77.99
2024-05-09T23:13:58.685Z,77.23
2024-05-09T23:16:26.494Z,76.77
2024-05-09T23:18:54.433Z,77.59
2024-05-09T23:21:24.860Z,74.98
2024-05-09T23:23:52.486Z,75.54
2024-05-09T23:26:20.046Z,74.54
2024-05-09T23:28:50.480Z,75.66
2024-05-09T23:31:18.092Z,76.20
2024-05-09T23:33:46.086Z,77.41
2024-05-09T23:36:14.194Z,77.46
2024-05-09T23:38:42.395Z,78.02
2024-05-09T23:41:09.890Z,77.89
2024-05-09T23:43:37.782Z,78.01
2024-05-09T23:46:08.794Z,78.26
2024-05-09T23:48:36.441Z,78.74
2024-05-09T23:51:04.039Z,79.55
2024-05-09T23:53:31.735Z,78.80
2024-05-09T23:55:59.246Z,79.03
2024-05-09T23:58:28.477Z,78.59
